createdAt,value
2019-01-15T00:00:49.945Z,0.60
2019-01-15T00:05:06.461Z,0.70
2019-01-15T00:09:22.853Z,0.70
2019-01-15T00:13:39.295Z,0.60
2019-01-15T00:17:55.960Z,0.60
2019-01-15T00:22:12.383Z,0.60
2019-01-15T00:26:28.770Z,0.70
2019-01-15T00:30:45.187Z,0.70
2019-01-15T00:35:01.954Z,0.80
2019-01-15T00:39:18.681Z,0.70
2019-01-15T00:43:35.119Z,0.70
2019-01-15T00:47:51.490Z,0.70
2019-01-15T00:52:08.179Z,0.70
2019-01-15T00:56:24.910Z,0.80
2019-01-15T01:00:41.336Z,0.80
2019-01-15T01:04:57.736Z,0.80
2019-01-15T01:09:14.159Z,0.90
2019-01-15T01:13:30.670Z,0.90
2019-01-15T01:17:47.111Z,0.90
2019-01-15T01:22:03.503Z,1.00
2019-01-15T01:26:20.206Z,1.00
2019-01-15T01:30:36.611Z,1.00
2019-01-15T01:34:53.042Z,1.00
2019-01-15T01:39:09.462Z,1.00
2019-01-15T01:43:26.898Z,1.00
2019-01-15T01:47:43.279Z,1.10
2019-01-15T01:51:59.684Z,1.10
2019-01-15T01:56:16.402Z,1.10
2019-01-15T02:00:33.149Z,1.10
2019-01-15T02:04:49.567Z,1.10
2019-01-15T02:09:06.559Z,1.10
2019-01-15T02:13:23.277Z,1.20
2019-01-15T02:17:39.727Z,1.20
2019-01-15T02:21:56.166Z,1.20
2019-01-15T02:26:12.836Z,1.20
2019-01-15T02:30:29.278Z,1.20
2019-01-15T02:34:45.692Z,1.20
2019-01-15T02:39:04.660Z,1.30
2019-01-15T02:43:21.160Z,1.30
2019-01-15T02:47:37.836Z,1.30
2019-01-15T02:51:54.270Z,1.40
2019-01-15T02:56:10.711Z,1.30
2019-01-15T03:00:27.130Z,1.30
2019-01-15T03:04:43.566Z,1.40
2019-01-15T03:08:59.989Z,1.40
2019-01-15T03:13:16.832Z,1.40
2019-01-15T03:17:33.271Z,1.40
2019-01-15T03:21:49.961Z,1.40
2019-01-15T03:26:06.753Z,1.40
2019-01-15T03:30:23.450Z,1.50
2019-01-15T03:34:39.839Z,1.40
2019-01-15T03:38:56.239Z,1.30
2019-01-15T03:43:12.700Z,1.40
2019-01-15T03:47:29.108Z,1.40
2019-01-15T03:51:45.584Z,1.30
2019-01-15T03:56:02.108Z,1.30
2019-01-15T04:00:20.421Z,1.30
2019-01-15T04:04:37.338Z,1.20
2019-01-15T04:08:53.787Z,1.20
2019-01-15T04:13:11.387Z,1.20
2019-01-15T04:17:28.057Z,1.20
2019-01-15T04:21:44.487Z,1.30
2019-01-15T04:26:00.897Z,1.30
2019-01-15T04:30:19.228Z,1.40
2019-01-15T04:34:35.665Z,1.40
2019-01-15T04:38:52.075Z,1.30
2019-01-15T04:43:08.503Z,1.40
2019-01-15T04:47:24.910Z,1.40
2019-01-15T04:51:41.332Z,1.40
2019-01-15T04:55:57.763Z,1.40
2019-01-15T05:00:17.987Z,1.40
2019-01-15T05:04:34.721Z,1.40
2019-01-15T05:08:51.315Z,1.40
2019-01-15T05:13:07.887Z,1.50
2019-01-15T05:17:24.677Z,1.40
2019-01-15T05:21:41.201Z,1.40
2019-01-15T05:25:57.685Z,1.40
2019-01-15T05:30:19.796Z,1.40
2019-01-15T05:34:36.208Z,1.40
2019-01-15T05:38:52.629Z,1.40
2019-01-15T05:43:09.039Z,1.40
2019-01-15T05:47:26.370Z,1.40
2019-01-15T05:51:43.040Z,1.30
2019-01-15T05:55:59.491Z,1.40
2019-01-15T06:00:16.078Z,1.30
2019-01-15T06:04:32.527Z,1.30
2019-01-15T06:08:48.915Z,1.30
2019-01-15T06:13:05.347Z,1.30
2019-01-15T06:17:21.960Z,1.30
2019-01-15T06:21:38.679Z,1.30
2019-01-15T06:25:55.127Z,1.30
2019-01-15T06:30:17.175Z,1.30
2019-01-15T06:34:33.584Z,1.30
2019-01-15T06:38:49.990Z,1.30
2019-01-15T06:43:06.443Z,1.30
2019-01-15T06:47:23.950Z,1.40
2019-01-15T06:51:40.402Z,1.40
2019-01-15T06:55:57.775Z,1.40
2019-01-15T07:00:17.422Z,1.40
2019-01-15T07:04:33.804Z,1.40
2019-01-15T07:08:50.237Z,1.40
2019-01-15T07:13:06.656Z,1.40
2019-01-15T07:17:23.149Z,1.50
2019-01-15T07:21:40.030Z,1.50
2019-01-15T07:25:56.461Z,1.60
2019-01-15T07:30:22.557Z,1.60
2019-01-15T07:34:39.981Z,1.60
2019-01-15T07:38:56.411Z,1.60
2019-01-15T07:43:12.943Z,1.60
2019-01-15T07:47:29.339Z,1.60
2019-01-15T07:51:45.777Z,1.70
2019-01-15T07:56:02.207Z,1.70
2019-01-15T08:00:23.002Z,1.70
2019-01-15T08:04:39.429Z,1.80
2019-01-15T08:08:55.940Z,1.90
2019-01-15T08:13:12.650Z,1.90
2019-01-15T08:17:29.142Z,2.00
2019-01-15T08:21:45.571Z,2.00
2019-01-15T08:26:02.101Z,2.10
2019-01-15T08:30:33.463Z,2.10
2019-01-15T08:34:49.877Z,2.20
2019-01-15T08:39:06.910Z,2.20
2019-01-15T08:43:23.333Z,2.30
2019-01-15T08:47:47.631Z,2.40
2019-01-15T08:52:04.043Z,2.50
2019-01-15T08:56:20.683Z,2.50
2019-01-15T09:00:37.112Z,2.50
2019-01-15T09:04:53.553Z,2.60
2019-01-15T09:09:09.947Z,2.60
2019-01-15T09:13:27.383Z,2.70
2019-01-15T09:17:43.883Z,2.60
2019-01-15T09:22:00.592Z,2.70
2019-01-15T09:26:17.014Z,2.80
2019-01-15T09:30:33.444Z,2.90
2019-01-15T09:34:49.873Z,2.90
2019-01-15T09:39:06.522Z,2.90
2019-01-15T09:43:22.946Z,2.90
2019-01-15T09:47:41.537Z,3.00
2019-01-15T09:51:58.226Z,3.10
2019-01-15T09:56:14.658Z,3.00
2019-01-15T10:00:31.075Z,2.90
2019-01-15T10:04:47.733Z,2.90
2019-01-15T10:09:08.080Z,3.00
2019-01-15T10:13:24.535Z,3.10
2019-01-15T10:17:40.875Z,3.20
2019-01-15T10:21:57.441Z,3.30
2019-01-15T10:26:13.831Z,3.40
2019-01-15T10:30:41.371Z,3.50
2019-01-15T10:35:01.171Z,3.40
2019-01-15T10:39:17.686Z,3.30
2019-01-15T10:43:34.055Z,3.30
2019-01-15T10:47:50.355Z,3.20
2019-01-15T10:52:06.673Z,3.30
2019-01-15T10:56:23.377Z,3.30
2019-01-15T11:00:39.785Z,3.20
2019-01-15T11:04:56.435Z,3.30
2019-01-15T11:09:12.772Z,3.30
2019-01-15T11:13:29.170Z,3.40
2019-01-15T11:17:46.865Z,3.40
2019-01-15T11:22:03.327Z,3.40
2019-01-15T11:26:19.750Z,3.50
2019-01-15T11:30:36.119Z,3.60
2019-01-15T11:35:04.426Z,3.60
2019-01-15T11:44:09.217Z,3.70
2019-01-15T11:48:27.962Z,3.70
2019-01-15T11:52:51.791Z,3.70
2019-01-15T11:58:16.091Z,3.60
2019-01-15T12:06:45.974Z,3.60
2019-01-15T12:16:12.335Z,3.50
2019-01-15T12:30:30.845Z,3.40
2019-01-15T12:34:59.958Z,3.40
2019-01-15T12:49:18.867Z,3.20
2019-01-15T12:53:58.400Z,3.20
2019-01-15T12:58:22.677Z,3.20
2019-01-15T13:03:02.416Z,3.30
2019-01-15T13:07:32.807Z,3.30
2019-01-15T13:12:05.014Z,3.30
2019-01-15T13:16:23.339Z,3.30
2019-01-15T13:20:50.889Z,3.20
2019-01-15T13:25:09.494Z,3.20
2019-01-15T13:29:30.815Z,3.10
2019-01-15T13:33:49.125Z,3.00
2019-01-15T13:38:19.390Z,3.00
2019-01-15T13:42:37.995Z,2.90
2019-01-15T13:47:02.090Z,3.00
2019-01-15T13:51:26.135Z,3.00
2019-01-15T13:55:59.479Z,3.10
2019-01-15T14:00:20.528Z,3.20
2019-01-15T14:04:39.151Z,3.30
2019-01-15T14:09:09.221Z,3.30
2019-01-15T14:13:44.210Z,3.40
2019-01-15T14:18:11.688Z,3.40
2019-01-15T14:22:38.832Z,3.50
2019-01-15T14:27:15.283Z,3.50
2019-01-15T14:31:42.503Z,3.50
2019-01-15T14:36:03.931Z,3.50
2019-01-15T14:40:38.941Z,3.50
2019-01-15T14:45:09.390Z,3.50
2019-01-15T14:49:27.698Z,3.50
2019-01-15T14:53:46.024Z,3.50
2019-01-15T14:58:07.316Z,3.50
2019-01-15T15:02:28.620Z,3.50
2019-01-15T15:06:49.696Z,3.50
2019-01-15T15:11:08.021Z,3.50
2019-01-15T15:15:26.359Z,3.60
2019-01-15T15:19:47.784Z,3.50
2019-01-15T15:24:09.354Z,3.50
2019-01-15T15:28:27.687Z,3.50
2019-01-15T15:32:52.111Z,3.50
2019-01-15T15:37:10.408Z,3.60
2019-01-15T15:41:28.738Z,3.60
2019-01-15T15:45:47.071Z,3.70
2019-01-15T15:50:20.569Z,3.60
2019-01-15T15:54:53.986Z,3.70
2019-01-15T15:59:15.570Z,3.70
2019-01-15T16:03:33.899Z,3.80
2019-01-15T16:07:55.207Z,3.80
2019-01-15T16:12:16.226Z,3.80
2019-01-15T16:16:38.096Z,3.80
2019-01-15T16:21:11.372Z,3.90
2019-01-15T16:25:32.935Z,3.90
2019-01-15T16:30:00.009Z,3.90
2019-01-15T16:34:35.118Z,3.90
2019-01-15T16:38:59.762Z,3.90
2019-01-15T16:43:34.407Z,3.90
2019-01-15T16:47:55.940Z,3.90
2019-01-15T16:52:14.467Z,3.90
2019-01-15T16:56:49.432Z,3.90
2019-01-15T17:01:11.006Z,3.90
2019-01-15T17:05:32.403Z,3.90
2019-01-15T17:09:57.105Z,3.90
2019-01-15T17:14:24.340Z,3.90
2019-01-15T17:18:51.789Z,4.00
2019-01-15T17:23:12.983Z,4.00
2019-01-15T17:27:31.289Z,4.00
2019-01-15T17:32:01.666Z,4.10
2019-01-15T17:36:23.624Z,4.20
2019-01-15T17:40:57.338Z,4.20
2019-01-15T17:45:27.887Z,4.30
2019-01-15T17:50:01.105Z,4.30
2019-01-15T17:54:19.447Z,4.30
2019-01-15T17:58:43.561Z,4.30
2019-01-15T18:03:04.737Z,4.40
2019-01-15T18:07:32.142Z,4.40
2019-01-15T18:12:06.784Z,4.40
2019-01-15T18:16:25.359Z,4.40
2019-01-15T18:20:44.335Z,4.40
2019-01-15T18:25:05.406Z,4.40
2019-01-15T18:29:40.356Z,4.40
2019-01-15T18:33:58.696Z,4.40
2019-01-15T18:38:31.955Z,4.40
2019-01-15T18:43:02.422Z,4.50
2019-01-15T18:47:39.001Z,4.50
2019-01-15T18:52:13.703Z,4.50
2019-01-15T18:56:50.153Z,4.60
2019-01-15T19:01:08.773Z,4.60
2019-01-15T19:05:31.155Z,4.60
2019-01-15T19:09:49.513Z,4.60
2019-01-15T19:14:13.934Z,4.70
2019-01-15T19:18:44.675Z,4.80
2019-01-15T19:23:03.008Z,4.90
2019-01-15T19:27:38.018Z,4.90
2019-01-15T19:31:59.910Z,4.90
2019-01-15T19:36:34.650Z,4.80
2019-01-15T19:41:09.382Z,4.80
2019-01-15T19:45:40.943Z,4.90
2019-01-15T19:49:59.555Z,4.90
2019-01-15T19:54:28.084Z,4.90
2019-01-15T19:59:01.542Z,4.90
2019-01-15T20:03:20.185Z,4.90
2019-01-15T20:07:53.767Z,4.90
2019-01-15T20:12:20.205Z,4.90
2019-01-15T20:16:56.687Z,4.90
2019-01-15T20:21:18.512Z,4.90
2019-01-15T20:25:37.891Z,5.00
2019-01-15T20:30:05.545Z,5.00
2019-01-15T20:34:40.787Z,4.90
2019-01-15T20:39:17.109Z,4.90
2019-01-15T20:43:48.164Z,5.00
2019-01-15T20:48:09.317Z,5.00
2019-01-15T20:52:43.965Z,5.00
2019-01-15T20:57:17.943Z,5.00
2019-01-15T21:01:48.175Z,5.00
2019-01-15T21:06:12.359Z,4.90
2019-01-15T21:10:31.804Z,4.80
2019-01-15T21:14:50.337Z,4.70
2019-01-15T21:19:11.671Z,4.60
2019-01-15T21:23:46.681Z,4.50
2019-01-15T21:28:14.213Z,4.40
2019-01-15T21:32:44.964Z,4.30
2019-01-15T21:37:03.269Z,4.20
2019-01-15T21:41:38.269Z,4.20
2019-01-15T21:45:59.741Z,4.10
2019-01-15T21:50:20.766Z,4.10
2019-01-15T21:54:42.084Z,4.20
2019-01-15T21:59:03.143Z,4.10
2019-01-15T22:03:36.855Z,4.10
2019-01-15T22:08:00.943Z,4.10
2019-01-15T22:12:22.233Z,4.10
2019-01-15T22:16:46.671Z,4.00
2019-01-15T22:21:20.141Z,4.00
2019-01-15T22:25:38.703Z,3.90
2019-01-15T22:29:57.035Z,3.80
2019-01-15T22:34:31.699Z,3.80
2019-01-15T22:39:08.238Z,3.70
2019-01-15T22:43:38.712Z,3.70
2019-01-15T22:48:14.921Z,3.70
2019-01-15T22:52:36.005Z,3.60
2019-01-15T22:56:54.314Z,3.60
2019-01-15T23:01:28.235Z,3.60
2019-01-15T23:05:49.860Z,3.60
2019-01-15T23:10:25.107Z,3.50
2019-01-15T23:15:01.429Z,3.50
2019-01-15T23:19:25.878Z,3.50
2019-01-15T23:23:47.284Z,3.40
2019-01-15T23:28:05.974Z,3.40
2019-01-15T23:32:30.536Z,3.40
2019-01-15T23:36:51.818Z,3.40
2019-01-15T23:41:19.011Z,3.40
2019-01-15T23:45:49.484Z,3.40
2019-01-15T23:50:22.153Z,3.50
2019-01-15T23:54:40.643Z,3.50
2019-01-15T23:59:01.892Z,3.50
